sensor_id;sensor_type;location;lat;lon;timestamp;P1;durP1;ratioP1;P2;durP2;ratioP2
77854;SDS011;67046;50.088;14.336;2023-04-03T00:00:11;4.70;;;2.40;;
77854;SDS011;67046;50.088;14.336;2023-04-03T00:01:03;5.70;;;2.20;;
77854;SDS011;67046;50.088;14.336;2023-04-03T00:01:36;5.80;;;2.30;;
77854;SDS011;67046;50.088;14.336;2023-04-03T00:02:09;5.10;;;1.90;;
77854;SDS011;67046;50.088;14.336;2023-04-03T00:02:41;3.50;;;2.00;;
77854;SDS011;67046;50.088;14.336;2023-04-03T00:03:13;4.80;;;1.90;;
77854;SDS011;67046;50.088;14.336;2023-04-03T00:03:45;3.90;;;1.80;;
77854;SDS011;67046;50.088;14.336;2023-04-03T00:04:17;3.40;;;1.90;;
77854;SDS011;67046;50.088;14.336;2023-04-03T00:04:49;4.60;;;2.00;;
77854;SDS011;67046;50.088;14.336;2023-04-03T00:05:21;4.20;;;1.90;;
77854;SDS011;67046;50.088;14.336;2023-04-03T00:05:53;4.90;;;2.20;;
77854;SDS011;67046;50.088;14.336;2023-04-03T00:06:26;4.80;;;2.00;;
77854;SDS011;67046;50.088;14.336;2023-04-03T00:06:58;3.70;;;1.80;;
77854;SDS011;67046;50.088;14.336;2023-04-03T00:07:30;3.30;;;2.20;;
77854;SDS011;67046;50.088;14.336;2023-04-03T00:08:02;5.00;;;2.40;;
77854;SDS011;67046;50.088;14.336;2023-04-03T00:08:36;4.60;;;2.50;;
77854;SDS011;67046;50.088;14.336;2023-04-03T00:09:08;5.00;;;1.90;;
77854;SDS011;67046;50.088;14.336;2023-04-03T00:09:40;5.70;;;2.50;;
77854;SDS011;67046;50.088;14.336;2023-04-03T00:10:12;6.70;;;2.70;;
77854;SDS011;67046;50.088;14.336;2023-04-03T00:10:45;3.40;;;2.00;;
77854;SDS011;67046;50.088;14.336;2023-04-03T00:11:49;5.50;;;2.10;;
77854;SDS011;67046;50.088;14.336;2023-04-03T00:12:21;3.30;;;2.10;;
77854;SDS011;67046;50.088;14.336;2023-04-03T00:12:53;3.80;;;2.00;;
77854;SDS011;67046;50.088;14.336;2023-04-03T00:13:25;4.70;;;2.90;;
77854;SDS011;67046;50.088;14.336;2023-04-03T00:13:57;7.20;;;2.20;;
77854;SDS011;67046;50.088;14.336;2023-04-03T00:14:29;4.00;;;1.90;;
77854;SDS011;67046;50.088;14.336;2023-04-03T00:15:01;4.70;;;2.10;;
77854;SDS011;67046;50.088;14.336;2023-04-03T00:16:07;4.90;;;2.10;;
77854;SDS011;67046;50.088;14.336;2023-04-03T00:16:40;4.40;;;2.00;;
77854;SDS011;67046;50.088;14.336;2023-04-03T00:17:12;4.20;;;1.90;;
77854;SDS011;67046;50.088;14.336;2023-04-03T00:17:44;3.10;;;1.60;;
77854;SDS011;67046;50.088;14.336;2023-04-03T00:18:17;3.60;;;1.70;;
77854;SDS011;67046;50.088;14.336;2023-04-03T00:18:49;3.10;;;1.70;;
77854;SDS011;67046;50.088;14.336;2023-04-03T00:19:21;5.10;;;2.00;;
77854;SDS011;67046;50.088;14.336;2023-04-03T00:19:53;7.00;;;1.90;;
77854;SDS011;67046;50.088;14.336;2023-04-03T00:20:25;3.90;;;2.10;;
77854;SDS011;67046;50.088;14.336;2023-04-03T00:20:58;5.50;;;2.10;;
77854;SDS011;67046;50.088;14.336;2023-04-03T00:21:31;4.60;;;1.80;;
77854;SDS011;67046;50.088;14.336;2023-04-03T00:22:03;6.80;;;1.90;;
77854;SDS011;67046;50.088;14.336;2023-04-03T00:22:35;4.90;;;2.10;;
77854;SDS011;67046;50.088;14.336;2023-04-03T00:23:07;3.10;;;2.00;;
77854;SDS011;67046;50.088;14.336;2023-04-03T00:23:38;4.50;;;2.10;;
77854;SDS011;67046;50.088;14.336;2023-04-03T00:24:11;3.90;;;2.10;;
77854;SDS011;67046;50.088;14.336;2023-04-03T00:24:43;4.50;;;2.30;;
77854;SDS011;67046;50.088;14.336;2023-04-03T00:25:15;3.20;;;2.00;;
77854;SDS011;67046;50.088;14.336;2023-04-03T00:25:47;4.50;;;2.20;;
77854;SDS011;67046;50.088;14.336;2023-04-03T00:26:19;3.60;;;1.90;;
77854;SDS011;67046;50.088;14.336;2023-04-03T00:27:23;4.90;;;1.80;;
77854;SDS011;67046;50.088;14.336;2023-04-03T00:27:55;3.40;;;2.10;;
77854;SDS011;67046;50.088;14.336;2023-04-03T00:28:27;4.80;;;2.30;;
77854;SDS011;67046;50.088;14.336;2023-04-03T00:28:59;4.80;;;2.10;;
77854;SDS011;67046;50.088;14.336;2023-04-03T00:29:31;3.80;;;2.10;;
77854;SDS011;67046;50.088;14.336;2023-04-03T00:30:06;4.70;;;2.10;;
77854;SDS011;67046;50.088;14.336;2023-04-03T00:30:40;3.70;;;1.70;;
77854;SDS011;67046;50.088;14.336;2023-04-03T00:31:14;4.40;;;2.20;;
77854;SDS011;67046;50.088;14.336;2023-04-03T00:31:47;5.10;;;1.90;;
77854;SDS011;67046;50.088;14.336;2023-04-03T00:32:19;4.60;;;2.30;;
77854;SDS011;67046;50.088;14.336;2023-04-03T00:32:51;5.60;;;2.30;;
77854;SDS011;67046;50.088;14.336;2023-04-03T00:33:24;4.70;;;2.10;;
77854;SDS011;67046;50.088;14.336;2023-04-03T00:33:56;5.50;;;2.20;;
77854;SDS011;67046;50.088;14.336;2023-04-03T00:34:28;4.50;;;1.90;;
77854;SDS011;67046;50.088;14.336;2023-04-03T00:35:00;4.70;;;2.00;;
77854;SDS011;67046;50.088;14.336;2023-04-03T00:35:32;4.40;;;2.00;;
77854;SDS011;67046;50.088;14.336;2023-04-03T00:36:07;5.30;;;2.10;;
77854;SDS011;67046;50.088;14.336;2023-04-03T00:36:40;4.80;;;2.30;;
77854;SDS011;67046;50.088;14.336;2023-04-03T00:37:12;3.80;;;2.00;;
77854;SDS011;67046;50.088;14.336;2023-04-03T00:37:44;4.80;;;2.30;;
77854;SDS011;67046;50.088;14.336;2023-04-03T00:38:17;4.90;;;2.00;;
77854;SDS011;67046;50.088;14.336;2023-04-03T00:38:49;3.30;;;2.20;;
77854;SDS011;67046;50.088;14.336;2023-04-03T00:39:21;6.10;;;2.60;;
77854;SDS011;67046;50.088;14.336;2023-04-03T00:39:53;5.10;;;1.80;;
77854;SDS011;67046;50.088;14.336;2023-04-03T00:40:25;4.30;;;1.80;;
77854;SDS011;67046;50.088;14.336;2023-04-03T00:40:58;3.20;;;1.90;;
77854;SDS011;67046;50.088;14.336;2023-04-03T00:41:31;6.10;;;2.00;;
77854;SDS011;67046;50.088;14.336;2023-04-03T00:42:03;3.80;;;2.20;;
77854;SDS011;67046;50.088;14.336;2023-04-03T00:42:41;5.20;;;2.40;;
77854;SDS011;67046;50.088;14.336;2023-04-03T00:43:16;4.20;;;2.10;;
77854;SDS011;67046;50.088;14.336;2023-04-03T00:43:51;4.80;;;2.00;;
77854;SDS011;67046;50.088;14.336;2023-04-03T00:45:37;7.60;;;2.40;;
77854;SDS011;67046;50.088;14.336;2023-04-03T00:46:12;6.90;;;2.50;;
77854;SDS011;67046;50.088;14.336;2023-04-03T00:46:43;3.70;;;2.00;;
77854;SDS011;67046;50.088;14.336;2023-04-03T00:47:16;5.90;;;2.70;;
77854;SDS011;67046;50.088;14.336;2023-04-03T00:47:49;5.10;;;2.40;;
77854;SDS011;67046;50.088;14.336;2023-04-03T00:48:23;5.60;;;2.30;;
77854;SDS011;67046;50.088;14.336;2023-04-03T00:48:56;4.10;;;2.10;;
77854;SDS011;67046;50.088;14.336;2023-04-03T00:49:28;4.70;;;2.20;;
77854;SDS011;67046;50.088;14.336;2023-04-03T00:50:00;4.70;;;1.90;;
77854;SDS011;67046;50.088;14.336;2023-04-03T00:50:35;4.30;;;1.90;;
77854;SDS011;67046;50.088;14.336;2023-04-03T00:51:13;4.10;;;2.20;;
77854;SDS011;67046;50.088;14.336;2023-04-03T00:51:50;4.30;;;1.90;;
77854;SDS011;67046;50.088;14.336;2023-04-03T00:52:25;5.80;;;2.10;;
77854;SDS011;67046;50.088;14.336;2023-04-03T00:53:01;5.50;;;2.50;;
77854;SDS011;67046;50.088;14.336;2023-04-03T00:53:36;3.90;;;2.20;;
77854;SDS011;67046;50.088;14.336;2023-04-03T00:54:12;5.40;;;2.20;;
77854;SDS011;67046;50.088;14.336;2023-04-03T00:55:17;7.40;;;2.40;;
77854;SDS011;67046;50.088;14.336;2023-04-03T00:55:51;4.10;;;2.30;;
77854;SDS011;67046;50.088;14.336;2023-04-03T00:56:25;5.00;;;2.40;;
77854;SDS011;67046;50.088;14.336;2023-04-03T00:56:59;4.60;;;2.10;;
77854;SDS011;67046;50.088;14.336;2023-04-03T00:58:04;4.00;;;2.10;;
77854;SDS011;67046;50.088;14.336;2023-04-03T00:58:51;4.20;;;2.10;;
77854;SDS011;67046;50.088;14.336;2023-04-03T00:59:46;4.70;;;2.20;;
77854;SDS011;67046;50.088;14.336;2023-04-03T01:00:22;5.00;;;2.30;;
77854;SDS011;67046;50.088;14.336;2023-04-03T01:00:55;4.90;;;1.90;;
77854;SDS011;67046;50.088;14.336;2023-04-03T01:01:30;3.70;;;2.20;;
77854;SDS011;67046;50.088;14.336;2023-04-03T01:02:03;5.90;;;2.70;;
77854;SDS011;67046;50.088;14.336;2023-04-03T01:02:35;3.70;;;2.30;;
77854;SDS011;67046;50.088;14.336;2023-04-03T01:03:08;7.10;;;2.70;;
77854;SDS011;67046;50.088;14.336;2023-04-03T01:03:40;5.10;;;2.20;;
77854;SDS011;67046;50.088;14.336;2023-04-03T01:05:05;4.50;;;2.00;;
77854;SDS011;67046;50.088;14.336;2023-04-03T01:05:38;4.80;;;2.30;;
77854;SDS011;67046;50.088;14.336;2023-04-03T01:06:11;3.40;;;1.80;;
77854;SDS011;67046;50.088;14.336;2023-04-03T01:06:44;6.40;;;2.40;;
77854;SDS011;67046;50.088;14.336;2023-04-03T01:07:17;4.90;;;2.50;;
77854;SDS011;67046;50.088;14.336;2023-04-03T01:07:53;5.20;;;2.90;;
77854;SDS011;67046;50.088;14.336;2023-04-03T01:08:26;4.60;;;2.20;;
77854;SDS011;67046;50.088;14.336;2023-04-03T01:08:58;5.30;;;2.10;;
77854;SDS011;67046;50.088;14.336;2023-04-03T01:09:32;4.50;;;2.30;;
77854;SDS011;67046;50.088;14.336;2023-04-03T01:10:08;4.60;;;2.20;;
77854;SDS011;67046;50.088;14.336;2023-04-03T01:10:42;4.70;;;2.10;;
77854;SDS011;67046;50.088;14.336;2023-04-03T01:11:17;5.00;;;2.00;;
77854;SDS011;67046;50.088;14.336;2023-04-03T01:11:50;3.90;;;1.90;;
77854;SDS011;67046;50.088;14.336;2023-04-03T01:12:23;4.80;;;2.20;;
77854;SDS011;67046;50.088;14.336;2023-04-03T01:12:56;4.30;;;2.00;;
77854;SDS011;67046;50.088;14.336;2023-04-03T01:14:02;6.30;;;2.50;;
77854;SDS011;67046;50.088;14.336;2023-04-03T01:15:10;4.00;;;2.00;;
77854;SDS011;67046;50.088;14.336;2023-04-03T01:15:45;4.30;;;1.70;;
77854;SDS011;67046;50.088;14.336;2023-04-03T01:16:17;3.90;;;1.80;;
77854;SDS011;67046;50.088;14.336;2023-04-03T01:16:55;4.40;;;1.80;;
77854;SDS011;67046;50.088;14.336;2023-04-03T01:17:38;4.10;;;1.70;;
77854;SDS011;67046;50.088;14.336;2023-04-03T01:18:19;4.90;;;1.70;;
77854;SDS011;67046;50.088;14.336;2023-04-03T01:18:52;4.90;;;2.40;;
77854;SDS011;67046;50.088;14.336;2023-04-03T01:19:24;4.20;;;2.00;;
77854;SDS011;67046;50.088;14.336;2023-04-03T01:21:09;4.50;;;1.60;;
77854;SDS011;67046;50.088;14.336;2023-04-03T01:22:56;4.60;;;1.80;;
77854;SDS011;67046;50.088;14.336;2023-04-03T01:23:50;4.40;;;2.10;;
77854;SDS011;67046;50.088;14.336;2023-04-03T01:24:36;5.00;;;1.60;;
77854;SDS011;67046;50.088;14.336;2023-04-03T01:25:10;4.30;;;1.90;;
77854;SDS011;67046;50.088;14.336;2023-04-03T01:25:46;5.80;;;2.00;;
77854;SDS011;67046;50.088;14.336;2023-04-03T01:26:23;4.10;;;1.70;;
77854;SDS011;67046;50.088;14.336;2023-04-03T01:26:57;4.70;;;2.00;;
77854;SDS011;67046;50.088;14.336;2023-04-03T01:27:29;4.60;;;1.70;;
77854;SDS011;67046;50.088;14.336;2023-04-03T01:28:02;4.30;;;2.00;;
77854;SDS011;67046;50.088;14.336;2023-04-03T01:28:35;4.60;;;1.90;;
77854;SDS011;67046;50.088;14.336;2023-04-03T01:29:07;3.50;;;1.90;;
77854;SDS011;67046;50.088;14.336;2023-04-03T01:29:39;5.00;;;1.80;;
77854;SDS011;67046;50.088;14.336;2023-04-03T01:30:13;4.30;;;1.60;;
77854;SDS011;67046;50.088;14.336;2023-04-03T01:31:46;3.70;;;1.60;;
77854;SDS011;67046;50.088;14.336;2023-04-03T01:32:20;3.90;;;1.60;;
77854;SDS011;67046;50.088;14.336;2023-04-03T01:32:52;5.50;;;1.80;;
77854;SDS011;67046;50.088;14.336;2023-04-03T01:33:24;4.10;;;1.80;;
77854;SDS011;67046;50.088;14.336;2023-04-03T01:33:56;4.40;;;1.90;;
77854;SDS011;67046;50.088;14.336;2023-04-03T01:34:28;5.70;;;1.40;;
77854;SDS011;67046;50.088;14.336;2023-04-03T01:35:01;3.90;;;1.80;;
77854;SDS011;67046;50.088;14.336;2023-04-03T01:35:33;4.10;;;1.70;;
77854;SDS011;67046;50.088;14.336;2023-04-03T01:36:06;3.60;;;1.80;;
77854;SDS011;67046;50.088;14.336;2023-04-03T01:36:38;3.20;;;1.80;;
77854;SDS011;67046;50.088;14.336;2023-04-03T01:37:11;3.80;;;1.50;;
77854;SDS011;67046;50.088;14.336;2023-04-03T01:37:43;5.70;;;1.90;;
77854;SDS011;67046;50.088;14.336;2023-04-03T01:38:15;3.90;;;1.60;;
77854;SDS011;67046;50.088;14.336;2023-04-03T01:38:47;4.00;;;1.60;;
77854;SDS011;67046;50.088;14.336;2023-04-03T01:39:52;3.60;;;1.60;;
77854;SDS011;67046;50.088;14.336;2023-04-03T01:40:24;4.10;;;1.60;;
77854;SDS011;67046;50.088;14.336;2023-04-03T01:40:56;2.90;;;1.50;;
77854;SDS011;67046;50.088;14.336;2023-04-03T01:41:29;6.30;;;2.10;;
77854;SDS011;67046;50.088;14.336;2023-04-03T01:42:33;4.20;;;1.50;;
77854;SDS011;67046;50.088;14.336;2023-04-03T01:43:05;3.60;;;1.60;;
77854;SDS011;67046;50.088;14.336;2023-04-03T01:43:36;3.00;;;1.50;;
77854;SDS011;67046;50.088;14.336;2023-04-03T01:44:08;3.80;;;1.90;;
77854;SDS011;67046;50.088;14.336;2023-04-03T01:45:12;2.60;;;1.40;;
77854;SDS011;67046;50.088;14.336;2023-04-03T01:45:44;2.90;;;1.30;;
77854;SDS011;67046;50.088;14.336;2023-04-03T01:46:18;3.00;;;1.40;;
77854;SDS011;67046;50.088;14.336;2023-04-03T01:46:51;2.70;;;1.50;;
77854;SDS011;67046;50.088;14.336;2023-04-03T01:47:23;5.10;;;1.60;;
77854;SDS011;67046;50.088;14.336;2023-04-03T01:47:55;4.70;;;1.50;;
77854;SDS011;67046;50.088;14.336;2023-04-03T01:48:27;4.10;;;1.30;;
77854;SDS011;67046;50.088;14.336;2023-04-03T01:48:59;4.70;;;2.10;;
77854;SDS011;67046;50.088;14.336;2023-04-03T01:49:31;6.50;;;1.80;;
77854;SDS011;67046;50.088;14.336;2023-04-03T01:50:03;3.30;;;1.70;;
77854;SDS011;67046;50.088;14.336;2023-04-03T01:51:07;3.80;;;1.60;;
77854;SDS011;67046;50.088;14.336;2023-04-03T01:51:39;6.30;;;2.10;;
77854;SDS011;67046;50.088;14.336;2023-04-03T01:52:11;4.20;;;2.00;;
77854;SDS011;67046;50.088;14.336;2023-04-03T01:52:43;3.30;;;1.70;;
77854;SDS011;67046;50.088;14.336;2023-04-03T01:53:15;5.00;;;2.30;;
77854;SDS011;67046;50.088;14.336;2023-04-03T01:53:47;3.50;;;1.60;;
77854;SDS011;67046;50.088;14.336;2023-04-03T01:54:19;6.10;;;2.50;;
77854;SDS011;67046;50.088;14.336;2023-04-03T01:54:51;5.30;;;1.90;;
77854;SDS011;67046;50.088;14.336;2023-04-03T01:55:23;4.90;;;1.50;;
77854;SDS011;67046;50.088;14.336;2023-04-03T01:55:55;5.40;;;2.50;;
77854;SDS011;67046;50.088;14.336;2023-04-03T01:56:27;4.00;;;1.50;;
77854;SDS011;67046;50.088;14.336;2023-04-03T01:56:59;7.40;;;1.90;;
77854;SDS011;67046;50.088;14.336;2023-04-03T01:57:31;3.60;;;1.60;;
77854;SDS011;67046;50.088;14.336;2023-04-03T01:58:03;4.90;;;1.90;;
77854;SDS011;67046;50.088;14.336;2023-04-03T01:58:35;4.10;;;1.70;;
77854;SDS011;67046;50.088;14.336;2023-04-03T01:59:07;5.30;;;2.00;;
77854;SDS011;67046;50.088;14.336;2023-04-03T01:59:39;4.50;;;1.70;;
77854;SDS011;67046;50.088;14.336;2023-04-03T02:00:11;4.70;;;1.60;;
77854;SDS011;67046;50.088;14.336;2023-04-03T02:00:44;3.80;;;1.80;;
77854;SDS011;67046;50.088;14.336;2023-04-03T02:01:16;3.90;;;1.80;;
77854;SDS011;67046;50.088;14.336;2023-04-03T02:02:20;3.40;;;1.40;;
77854;SDS011;67046;50.088;14.336;2023-04-03T02:02:52;3.20;;;1.40;;
77854;SDS011;67046;50.088;14.336;2023-04-03T02:03:56;4.00;;;1.40;;
77854;SDS011;67046;50.088;14.336;2023-04-03T02:04:28;4.50;;;1.30;;
77854;SDS011;67046;50.088;14.336;2023-04-03T02:05:00;4.70;;;1.70;;
77854;SDS011;67046;50.088;14.336;2023-04-03T02:05:32;3.60;;;1.90;;
77854;SDS011;67046;50.088;14.336;2023-04-03T02:06:04;3.30;;;1.80;;
77854;SDS011;67046;50.088;14.336;2023-04-03T02:06:37;3.20;;;2.10;;
77854;SDS011;67046;50.088;14.336;2023-04-03T02:07:09;4.10;;;1.60;;
77854;SDS011;67046;50.088;14.336;2023-04-03T02:07:41;4.60;;;1.80;;
77854;SDS011;67046;50.088;14.336;2023-04-03T02:08:13;4.00;;;1.80;;
77854;SDS011;67046;50.088;14.336;2023-04-03T02:09:17;5.30;;;2.00;;
77854;SDS011;67046;50.088;14.336;2023-04-03T02:09:49;4.60;;;1.60;;
77854;SDS011;67046;50.088;14.336;2023-04-03T02:10:21;5.00;;;1.50;;
77854;SDS011;67046;50.088;14.336;2023-04-03T02:10:53;4.20;;;1.50;;
77854;SDS011;67046;50.088;14.336;2023-04-03T02:11:25;5.40;;;1.60;;
77854;SDS011;67046;50.088;14.336;2023-04-03T02:11:57;4.10;;;1.40;;
77854;SDS011;67046;50.088;14.336;2023-04-03T02:12:29;3.50;;;1.50;;
77854;SDS011;67046;50.088;14.336;2023-04-03T02:13:03;3.50;;;1.30;;
77854;SDS011;67046;50.088;14.336;2023-04-03T02:13:36;4.20;;;1.40;;
77854;SDS011;67046;50.088;14.336;2023-04-03T02:14:08;3.60;;;1.70;;
77854;SDS011;67046;50.088;14.336;2023-04-03T02:14:40;5.50;;;1.60;;
77854;SDS011;67046;50.088;14.336;2023-04-03T02:15:12;4.20;;;1.70;;
77854;SDS011;67046;50.088;14.336;2023-04-03T02:15:44;3.70;;;1.60;;
77854;SDS011;67046;50.088;14.336;2023-04-03T02:16:16;5.80;;;1.70;;
77854;SDS011;67046;50.088;14.336;2023-04-03T02:16:49;4.10;;;1.50;;
77854;SDS011;67046;50.088;14.336;2023-04-03T02:17:21;4.50;;;1.60;;
77854;SDS011;67046;50.088;14.336;2023-04-03T02:17:53;4.10;;;1.60;;
77854;SDS011;67046;50.088;14.336;2023-04-03T02:18:25;4.40;;;1.70;;
77854;SDS011;67046;50.088;14.336;2023-04-03T02:18:57;5.90;;;1.90;;
77854;SDS011;67046;50.088;14.336;2023-04-03T02:19:29;3.40;;;1.60;;
77854;SDS011;67046;50.088;14.336;2023-04-03T02:20:01;4.80;;;1.40;;
77854;SDS011;67046;50.088;14.336;2023-04-03T02:20:33;4.60;;;1.60;;
77854;SDS011;67046;50.088;14.336;2023-04-03T02:21:05;5.30;;;2.20;;
77854;SDS011;67046;50.088;14.336;2023-04-03T02:21:37;5.10;;;1.40;;
77854;SDS011;67046;50.088;14.336;2023-04-03T02:22:09;5.30;;;1.50;;
77854;SDS011;67046;50.088;14.336;2023-04-03T02:22:41;3.80;;;1.70;;
77854;SDS011;67046;50.088;14.336;2023-04-03T02:23:13;4.20;;;1.30;;
77854;SDS011;67046;50.088;14.336;2023-04-03T02:23:45;3.70;;;1.50;;
77854;SDS011;67046;50.088;14.336;2023-04-03T02:24:17;5.10;;;1.90;;
77854;SDS011;67046;50.088;14.336;2023-04-03T02:24:49;3.60;;;1.50;;
77854;SDS011;67046;50.088;14.336;2023-04-03T02:25:21;3.80;;;1.20;;
77854;SDS011;67046;50.088;14.336;2023-04-03T02:25:53;6.60;;;1.60;;
77854;SDS011;67046;50.088;14.336;2023-04-03T02:26:25;3.30;;;1.30;;
77854;SDS011;67046;50.088;14.336;2023-04-03T02:26:57;4.50;;;1.50;;
77854;SDS011;67046;50.088;14.336;2023-04-03T02:27:29;3.80;;;1.40;;
77854;SDS011;67046;50.088;14.336;2023-04-03T02:28:03;3.00;;;1.00;;
77854;SDS011;67046;50.088;14.336;2023-04-03T02:28:35;3.50;;;1.20;;
77854;SDS011;67046;50.088;14.336;2023-04-03T02:29:07;3.60;;;1.40;;
77854;SDS011;67046;50.088;14.336;2023-04-03T02:29:39;5.40;;;1.40;;
77854;SDS011;67046;50.088;14.336;2023-04-03T02:30:11;3.00;;;1.20;;
77854;SDS011;67046;50.088;14.336;2023-04-03T02:30:44;3.20;;;1.20;;
77854;SDS011;67046;50.088;14.336;2023-04-03T02:31:16;3.30;;;0.90;;
77854;SDS011;67046;50.088;14.336;2023-04-03T02:31:49;3.70;;;1.40;;
77854;SDS011;67046;50.088;14.336;2023-04-03T02:32:21;2.30;;;1.10;;
77854;SDS011;67046;50.088;14.336;2023-04-03T02:32:54;2.50;;;1.30;;
77854;SDS011;67046;50.088;14.336;2023-04-03T02:33:26;4.70;;;1.90;;
77854;SDS011;67046;50.088;14.336;2023-04-03T02:33:58;4.00;;;1.30;;
77854;SDS011;67046;50.088;14.336;2023-04-03T02:34:30;4.70;;;1.90;;
77854;SDS011;67046;50.088;14.336;2023-04-03T02:35:02;4.00;;;1.40;;
77854;SDS011;67046;50.088;14.336;2023-04-03T02:35:34;3.80;;;1.20;;
77854;SDS011;67046;50.088;14.336;2023-04-03T02:36:06;4.80;;;1.50;;
77854;SDS011;67046;50.088;14.336;2023-04-03T02:36:38;6.00;;;1.50;;
77854;SDS011;67046;50.088;14.336;2023-04-03T02:37:11;5.10;;;1.40;;
77854;SDS011;67046;50.088;14.336;2023-04-03T02:37:43;4.60;;;1.60;;
77854;SDS011;67046;50.088;14.336;2023-04-03T02:38:14;4.00;;;1.10;;
77854;SDS011;67046;50.088;14.336;2023-04-03T02:38:46;4.00;;;1.30;;
77854;SDS011;67046;50.088;14.336;2023-04-03T02:39:19;4.50;;;1.40;;
77854;SDS011;67046;50.088;14.336;2023-04-03T02:39:51;5.00;;;1.30;;
77854;SDS011;67046;50.088;14.336;2023-04-03T02:40:23;4.70;;;1.30;;
77854;SDS011;67046;50.088;14.336;2023-04-03T02:40:59;3.00;;;1.00;;
77854;SDS011;67046;50.088;14.336;2023-04-03T02:41:36;2.50;;;1.00;;
77854;SDS011;67046;50.088;14.336;2023-04-03T02:42:08;3.10;;;1.10;;
77854;SDS011;67046;50.088;14.336;2023-04-03T02:42:40;3.50;;;1.20;;
77854;SDS011;67046;50.088;14.336;2023-04-03T02:43:12;3.70;;;1.30;;
77854;SDS011;67046;50.088;14.336;2023-04-03T02:43:44;3.30;;;1.30;;
77854;SDS011;67046;50.088;14.336;2023-04-03T02:44:16;3.00;;;1.20;;
77854;SDS011;67046;50.088;14.336;2023-04-03T02:44:47;4.00;;;1.50;;
77854;SDS011;67046;50.088;14.336;2023-04-03T02:45:20;3.10;;;1.20;;
77854;SDS011;67046;50.088;14.336;2023-04-03T02:46:24;4.00;;;1.10;;
77854;SDS011;67046;50.088;14.336;2023-04-03T02:47:28;3.80;;;1.50;;
77854;SDS011;67046;50.088;14.336;2023-04-03T02:48:00;3.40;;;1.50;;
77854;SDS011;67046;50.088;14.336;2023-04-03T02:48:31;3.00;;;1.10;;
77854;SDS011;67046;50.088;14.336;2023-04-03T02:49:04;3.30;;;1.20;;
77854;SDS011;67046;50.088;14.336;2023-04-03T02:49:37;2.60;;;1.30;;
77854;SDS011;67046;50.088;14.336;2023-04-03T02:50:09;4.90;;;1.70;;
77854;SDS011;67046;50.088;14.336;2023-04-03T02:50:41;2.60;;;1.20;;
77854;SDS011;67046;50.088;14.336;2023-04-03T02:51:13;3.10;;;1.20;;
77854;SDS011;67046;50.088;14.336;2023-04-03T02:51:45;5.00;;;1.40;;
77854;SDS011;67046;50.088;14.336;2023-04-03T02:52:17;2.90;;;1.20;;
77854;SDS011;67046;50.088;14.336;2023-04-03T02:52:49;3.20;;;1.20;;
77854;SDS011;67046;50.088;14.336;2023-04-03T02:53:21;4.20;;;1.20;;
77854;SDS011;67046;50.088;14.336;2023-04-03T02:53:53;5.10;;;1.40;;
77854;SDS011;67046;50.088;14.336;2023-04-03T02:54:25;4.90;;;1.10;;
77854;SDS011;67046;50.088;14.336;2023-04-03T02:55:00;4.40;;;1.40;;
77854;SDS011;67046;50.088;14.336;2023-04-03T02:55:32;3.60;;;1.40;;
77854;SDS011;67046;50.088;14.336;2023-04-03T02:56:04;4.20;;;1.50;;
77854;SDS011;67046;50.088;14.336;2023-04-03T02:56:36;2.70;;;1.10;;
77854;SDS011;67046;50.088;14.336;2023-04-03T02:57:08;2.40;;;1.10;;
77854;SDS011;67046;50.088;14.336;2023-04-03T02:57:40;4.30;;;1.50;;
77854;SDS011;67046;50.088;14.336;2023-04-03T02:58:12;4.70;;;1.40;;
77854;SDS011;67046;50.088;14.336;2023-04-03T02:58:44;3.70;;;1.50;;
77854;SDS011;67046;50.088;14.336;2023-04-03T02:59:16;4.00;;;1.40;;
77854;SDS011;67046;50.088;14.336;2023-04-03T02:59:48;3.60;;;1.10;;
77854;SDS011;67046;50.088;14.336;2023-04-03T03:00:20;3.40;;;1.90;;
77854;SDS011;67046;50.088;14.336;2023-04-03T03:00:52;3.50;;;1.60;;
77854;SDS011;67046;50.088;14.336;2023-04-03T03:01:25;2.30;;;1.40;;
77854;SDS011;67046;50.088;14.336;2023-04-03T03:01:59;2.80;;;1.50;;
77854;SDS011;67046;50.088;14.336;2023-04-03T03:02:31;5.20;;;1.60;;
77854;SDS011;67046;50.088;14.336;2023-04-03T03:03:03;3.10;;;1.10;;
77854;SDS011;67046;50.088;14.336;2023-04-03T03:03:35;4.50;;;1.40;;
77854;SDS011;67046;50.088;14.336;2023-04-03T03:04:07;3.70;;;1.20;;
77854;SDS011;67046;50.088;14.336;2023-04-03T03:04:39;3.30;;;1.10;;
77854;SDS011;67046;50.088;14.336;2023-04-03T03:05:11;4.20;;;1.20;;
77854;SDS011;67046;50.088;14.336;2023-04-03T03:05:43;4.80;;;1.40;;
77854;SDS011;67046;50.088;14.336;2023-04-03T03:06:15;4.20;;;1.30;;
77854;SDS011;67046;50.088;14.336;2023-04-03T03:06:48;6.20;;;1.40;;
77854;SDS011;67046;50.088;14.336;2023-04-03T03:07:20;5.20;;;1.60;;
77854;SDS011;67046;50.088;14.336;2023-04-03T03:07:52;2.20;;;1.20;;
77854;SDS011;67046;50.088;14.336;2023-04-03T03:08:23;3.60;;;1.00;;
77854;SDS011;67046;50.088;14.336;2023-04-03T03:08:55;5.20;;;1.60;;
77854;SDS011;67046;50.088;14.336;2023-04-03T03:09:27;3.70;;;1.20;;
77854;SDS011;67046;50.088;14.336;2023-04-03T03:10:00;2.80;;;1.20;;
77854;SDS011;67046;50.088;14.336;2023-04-03T03:10:33;3.80;;;1.20;;
77854;SDS011;67046;50.088;14.336;2023-04-03T03:11:05;3.20;;;1.40;;
77854;SDS011;67046;50.088;14.336;2023-04-03T03:11:37;4.70;;;1.20;;
77854;SDS011;67046;50.088;14.336;2023-04-03T03:12:10;4.60;;;1.40;;
77854;SDS011;67046;50.088;14.336;2023-04-03T03:12:41;4.40;;;1.20;;
77854;SDS011;67046;50.088;14.336;2023-04-03T03:13:13;5.80;;;1.60;;
77854;SDS011;67046;50.088;14.336;2023-04-03T03:13:45;4.00;;;1.40;;
77854;SDS011;67046;50.088;14.336;2023-04-03T03:14:17;3.80;;;1.30;;
77854;SDS011;67046;50.088;14.336;2023-04-03T03:14:49;2.90;;;1.10;;
77854;SDS011;67046;50.088;14.336;2023-04-03T03:15:22;3.10;;;1.10;;
77854;SDS011;67046;50.088;14.336;2023-04-03T03:15:54;5.90;;;1.30;;
77854;SDS011;67046;50.088;14.336;2023-04-03T03:16:26;4.10;;;1.70;;
77854;SDS011;67046;50.088;14.336;2023-04-03T03:16:57;4.00;;;1.20;;
77854;SDS011;67046;50.088;14.336;2023-04-03T03:17:29;2.70;;;1.20;;
77854;SDS011;67046;50.088;14.336;2023-04-03T03:18:01;4.20;;;1.20;;
77854;SDS011;67046;50.088;14.336;2023-04-03T03:18:33;3.80;;;1.60;;
77854;SDS011;67046;50.088;14.336;2023-04-03T03:19:08;2.90;;;1.10;;
77854;SDS011;67046;50.088;14.336;2023-04-03T03:19:39;5.60;;;1.10;;
77854;SDS011;67046;50.088;14.336;2023-04-03T03:20:11;4.50;;;1.70;;
77854;SDS011;67046;50.088;14.336;2023-04-03T03:20:46;3.20;;;1.20;;
77854;SDS011;67046;50.088;14.336;2023-04-03T03:21:22;2.10;;;0.90;;
77854;SDS011;67046;50.088;14.336;2023-04-03T03:21:53;4.50;;;1.90;;
77854;SDS011;67046;50.088;14.336;2023-04-03T03:22:25;2.90;;;1.20;;
77854;SDS011;67046;50.088;14.336;2023-04-03T03:22:57;4.10;;;1.50;;
77854;SDS011;67046;50.088;14.336;2023-04-03T03:23:30;4.70;;;1.80;;
77854;SDS011;67046;50.088;14.336;2023-04-03T03:24:03;3.80;;;1.10;;
77854;SDS011;67046;50.088;14.336;2023-04-03T03:24:35;3.80;;;1.20;;
77854;SDS011;67046;50.088;14.336;2023-04-03T03:25:40;4.20;;;1.50;;
77854;SDS011;67046;50.088;14.336;2023-04-03T03:26:44;5.20;;;1.50;;
77854;SDS011;67046;50.088;14.336;2023-04-03T03:27:15;2.40;;;1.20;;
77854;SDS011;67046;50.088;14.336;2023-04-03T03:27:47;3.50;;;1.50;;
77854;SDS011;67046;50.088;14.336;2023-04-03T03:28:19;6.40;;;2.10;;
77854;SDS011;67046;50.088;14.336;2023-04-03T03:28:51;5.20;;;1.30;;
77854;SDS011;67046;50.088;14.336;2023-04-03T03:29:23;3.70;;;1.60;;
77854;SDS011;67046;50.088;14.336;2023-04-03T03:29:55;3.90;;;1.50;;